LFBE/EGC METAR and TAF weather

Enter ICAO airport designator
Station Type Date Time Source
LFBE METAR 2019/02/20 07:30 UTC NOAA

LFBE 200730Z AUTO 08006KT 4200 BR NSC 00/00 Q1023 BECMG 9999 NSW


Station Type Date Time Source
LFBE Decoded METAR 2019/02/20 07:30 UTC NOAA

Bergerac, France (LFBE) 44-49N 000-31E 52M
Feb 20, 2019 - 02:30 AM EST / 2019.02.20 0730 UTC
Wind: from the E (080 degrees) at 7 MPH (6 KT):0
Visibility: 2 mile(s):0
Weather: mist
Temperature: 32 F (0 C)
Windchill: 24 F (-4 C):1
Dew Point: 32 F (0 C)
Relative Humidity: 100%
Pressure (altimeter): 30.21 in. Hg (1023 hPa)
ob: LFBE 200730Z AUTO 08006KT 4200 BR NSC 00/00 Q1023 BECMG 9999 NSW
cycle: 7

Station Type Date Time Source
LFBE TAF 2019/02/20 06:21 UTC NOAA

TAF LFBE 200500Z 2006/2106 14004KT 0700 FG VV///
TEMPO 2006/2008 0400
BECMG 2008/2010 CAVOK


Example: see airport list